1898 Severe Cyclonic Storm NOT_NAMED (1898309N11085)


IBTrACS version v04r00. Visit IBTrACS website for data access.
Please direct all questions to the IBTrACS Q and A forum

Storm track - Intensity - Wind Radii - Intensity Data - Source Data - All data

Summary Information

Storm ID 1898309N11085
Start Nov 5 00Z
Landfall Nov 6 00Z
Max Intensity 64 kt (Nov 5 03Z)
End Nov 11 03Z
ATCF IDs
Track status Best track data.

Storm track plot

Map of storm track

Intensity plots

Map of storm track

Radial wind information

No radial wind information for this storm


Position and Intensity Table

BASIN ISO_TIME_________ NATURE LAT LON DS824 WIND
degrees north degrees east kts
NI 1898-11-05 00:00:00 TS 10.90 84.90 64
NI 03:00:00 TS 11.11 84.50 64
NI 06:00:00 TS 11.37 83.96 64
NI 09:00:00 TS 11.63 83.40 64
NI 12:00:00 TS 11.86 82.83 64
NI 15:00:00 TS 12.13 82.16 55
NI 18:00:00 TS 12.38 81.43 47
NI 21:00:00 TS 12.62 80.68 38
NI 1898-11-06 00:00:00 TS 12.81 80.00 30
NI 03:00:00 TS 12.96 79.52 30
NI 06:00:00 TS 13.06 79.19 30
NI 09:00:00 TS 13.13 78.86 30
NI 12:00:00 TS 13.18 78.54 30
NI 15:00:00 TS 13.22 78.20 30
NI 18:00:00 TS 13.28 77.80 30
NI 21:00:00 TS 13.33 77.39 30
NI 1898-11-07 00:00:00 TS 13.38 76.99 30
NI 03:00:00 TS 13.42 76.64 30
NI 06:00:00 TS 13.47 76.34 30
NI 09:00:00 TS 13.52 76.04 30
NI 12:00:00 TS 13.57 75.75 30
NI 15:00:00 TS 13.62 75.45 31
NI 18:00:00 TS 13.67 75.15 32
NI 21:00:00 TS 13.72 74.84 33
NI 1898-11-08 00:00:00 TS 13.77 74.49 34
NI 03:00:00 TS 13.82 74.09 41
NI 06:00:00 TS 13.87 73.64 49
NI 09:00:00 TS 13.91 73.16 56
NI 12:00:00 TS 13.96 72.66 64
NI 15:00:00 TS 14.04 72.12 64
NI 18:00:00 TS 14.16 71.58 64
NI 21:00:00 TS 14.33 71.05 64
NI 1898-11-09 00:00:00 TS 14.51 70.55 64
NI 03:00:00 TS 14.67 70.09 64
NI 06:00:00 TS 14.83 69.69 64
NI 09:00:00 TS 15.01 69.33 64
NI 12:00:00 TS 15.20 68.98 64
NI 15:00:00 TS 15.40 68.60 64
NI 18:00:00 TS 15.61 68.20 64
NI 21:00:00 TS 15.85 67.81 64
NI 1898-11-10 00:00:00 TS 16.09 67.46 64
NI 03:00:00 TS 16.28 67.19 64
NI 06:00:00 TS 16.44 66.98 64
NI 09:00:00 TS 16.61 66.78 64
NI 12:00:00 TS 16.81 66.59 64
NI 15:00:00 TS 17.02 66.38 56
NI 18:00:00 TS 17.24 66.17 49
NI 21:00:00 TS 17.48 65.96 41
NI 1898-11-11 00:00:00 TS 17.72 65.76 34
NI 03:00:00 NR 17.90 65.60

Source Information

Agency Information
USA
TOKYO
CMA
HKO
NEWDELHI
REUNION
BOM
NADI
WELLINGTON
DS824 n_ind.dat:251:NOT NAMED
TD9636 cons_worldwide_trop_cyclone_18710101-19891231-004:Line=2495
TD9635
NEUMANN
MLC

All available IBTrACS Data

SEASON BASIN SUBBASIN ISO_TIME_________ NATURE LAT LON DIST2LAND LANDFALL IFLAG USA SSHS DS824 LAT DS824 LON DS824 STAGE DS824 WIND TD9636 LAT TD9636 LON TD9636 STAGE STORM SPEED STORM DIR
Year degrees north degrees east km km 1 degrees north degrees east kts degrees north degrees east kts degrees
1898 NI BB 1898-11-05 00:00:00 TS 10.90 84.90 474 450 _________O____ -1 10.90 84.90 TC 64 9 298
1898 NI BB 03:00:00 TS 11.11 84.50 450 415 _________PO___ -1 11.21 84.30 TC 64 10.90 84.90 4 10 297
1898 NI BB 06:00:00 TS 11.37 83.96 421 362 _________OP___ -1 11.50 83.70 TC 64 11.18 84.35 4 12 296
1898 NI BB 09:00:00 TS 11.63 83.40 362 301 _________PP___ -1 11.76 83.11 TC 64 11.45 83.78 4 12 294
1898 NI BB 12:00:00 TS 11.86 82.83 290 221 _________OP___ -1 12.00 82.50 TC 64 11.73 83.17 4 13 292
1898 NI BB 15:00:00 TS 12.13 82.16 221 141 _________PO___ -1 12.26 81.81 TC 55 12.00 82.50 4 15 291
1898 NI BB 18:00:00 TS 12.38 81.43 130 54 _________OP___ -1 12.50 81.10 TC 47 12.26 81.77 4 15 289
1898 NI BB 21:00:00 TS 12.62 80.68 54 0 _________PP___ -1 12.72 80.34 TC 38 12.51 81.02 4 15 287
1898 NI BB 1898-11-06 00:00:00 TS 12.81 80.00 0 0 _________OP___ -1 12.90 79.70 TC 30 12.73 80.31 4 12 287
1898 NI BB 03:00:00 TS 12.96 79.52 0 0 _________PO___ -1 13.02 79.35 TC 30 12.90 79.70 1 8 287
1898 NI BB 06:00:00 TS 13.06 79.19 0 0 _________OP___ -1 13.10 79.10 TC 30 13.02 79.28 1 7 285
1898 NI BB 09:00:00 TS 13.13 78.86 0 0 _________PP___ -1 13.16 78.76 TC 30 13.10 78.96 1 6 281
1898 NI BB 12:00:00 TS 13.18 78.54 0 0 _________OP___ -1 13.20 78.40 TC 30 13.16 78.69 1 6 279
1898 NI BB 15:00:00 TS 13.22 78.20 0 0 _________PO___ -1 13.25 78.01 TC 30 13.20 78.40 1 7 278
1898 NI AS 18:00:00 TS 13.28 77.80 0 0 _________OP___ -1 13.30 77.60 TC 30 13.26 78.01 1 8 277
1898 NI AS 21:00:00 TS 13.33 77.39 0 0 _________PP___ -1 13.35 77.18 TC 30 13.31 77.59 1 8 277
1898 NI AS 1898-11-07 00:00:00 TS 13.38 76.99 0 0 _________OP___ -1 13.40 76.80 TC 30 13.35 77.18 1 7 278
1898 NI AS 03:00:00 TS 13.42 76.64 0 0 _________PO___ -1 13.45 76.48 TC 30 13.40 76.80 1 6 279
1898 NI AS 06:00:00 TS 13.47 76.34 0 0 _________OP___ -1 13.50 76.20 TC 30 13.45 76.48 1 6 280
1898 NI AS 09:00:00 TS 13.52 76.04 0 0 _________PP___ -1 13.55 75.90 TC 30 13.50 76.18 1 6 280
1898 NI AS 12:00:00 TS 13.57 75.75 0 0 _________OP___ -1 13.60 75.60 TC 30 13.55 75.89 1 6 280
1898 NI AS 15:00:00 TS 13.62 75.45 0 0 _________PO___ -1 13.65 75.31 TC 31 13.60 75.60 1 6 280
1898 NI AS 18:00:00 TS 13.67 75.15 0 0 _________OP___ -1 13.70 75.00 TC 32 13.65 75.31 1 6 279
1898 NI AS 21:00:00 TS 13.72 74.84 0 0 _________PP___ -1 13.75 74.67 TC 33 13.70 75.00 1 7 279
1898 NI AS 1898-11-08 00:00:00 TS 13.77 74.49 15 15 _________OP___ -1 13.80 74.30 TC 34 13.75 74.67 1 7 278
1898 NI AS 03:00:00 TS 13.82 74.09 54 54 _________PO___ -1 13.85 73.87 TC 41 13.80 74.30 2 8 276
1898 NI AS 06:00:00 TS 13.87 73.64 97 97 _________OP___ -1 13.90 73.40 TC 49 13.83 73.88 2 9 275
1898 NI AS 09:00:00 TS 13.91 73.16 137 137 _________PP___ -1 13.94 72.91 TC 56 13.87 73.41 2 10 276
1898 NI AS 12:00:00 TS 13.96 72.66 175 175 _________OP___ -1 14.00 72.40 TC 64 13.92 72.91 2 10 278
1898 NI AS 15:00:00 TS 14.04 72.12 229 229 _________PO___ -1 14.08 71.85 TC 64 14.00 72.40 4 11 281
1898 NI AS 18:00:00 TS 14.16 71.58 267 267 _________OP___ -1 14.20 71.30 TC 64 14.12 71.87 4 11 285
1898 NI AS 21:00:00 TS 14.33 71.05 324 319 _________PP___ -1 14.39 70.78 TC 64 14.26 71.32 4 11 289
1898 NI AS 1898-11-09 00:00:00 TS 14.51 70.55 365 365 _________OP___ -1 14.60 70.30 TC 64 14.43 70.79 4 10 290
1898 NI AS 03:00:00 TS 14.67 70.09 396 396 _________PO___ -1 14.75 69.88 TC 64 14.60 70.30 4 9 291
1898 NI AS 06:00:00 TS 14.83 69.69 429 429 _________OP___ -1 14.90 69.50 TC 64 14.76 69.88 4 8 294
1898 NI AS 09:00:00 TS 15.01 69.33 459 459 _________PP___ -1 15.09 69.15 TC 64 14.93 69.50 4 8 298
1898 NI AS 12:00:00 TS 15.20 68.98 482 482 _________OP___ -1 15.30 68.80 TC 64 15.11 69.15 4 8 299
1898 NI AS 15:00:00 TS 15.40 68.60 517 517 _________PO___ -1 15.49 68.40 TC 64 15.30 68.80 4 9 298
1898 NI AS 18:00:00 TS 15.61 68.20 554 554 _________OP___ -1 15.70 68.00 TC 64 15.52 68.40 4 9 301
1898 NI AS 21:00:00 TS 15.85 67.81 591 591 _________PP___ -1 15.96 67.62 TC 64 15.75 68.00 4 9 304
1898 NI AS 1898-11-10 00:00:00 TS 16.09 67.46 619 618 _________OP___ -1 16.20 67.30 TC 64 15.98 67.62 4 7 305
1898 NI AS 03:00:00 TS 16.28 67.19 621 617 _________PO___ -1 16.36 67.08 TC 64 16.20 67.30 4 6 307
1898 NI AS 06:00:00 TS 16.44 66.98 623 614 _________OP___ -1 16.50 66.90 TC 64 16.38 67.05 4 5 310
1898 NI AS 09:00:00 TS 16.61 66.78 617 612 _________PP___ -1 16.68 66.71 TC 64 16.54 66.85 4 5 315
1898 NI AS 12:00:00 TS 16.81 66.59 612 608 _________OP___ -1 16.90 66.50 TC 64 16.71 66.68 4 6 316
1898 NI AS 15:00:00 TS 17.02 66.38 608 598 _________PO___ -1 17.14 66.25 TC 56 16.90 66.50 4 6 317
1898 NI AS 18:00:00 TS 17.24 66.17 605 596 _________OP___ -1 17.40 66.00 TC 49 17.12 66.30 4 6 319
1898 NI AS 21:00:00 TS 17.48 65.96 596 596 _________PP___ -1 17.65 65.79 TC 41 17.37 66.08 4 6 321
1898 NI AS 1898-11-11 00:00:00 TS 17.72 65.76 596 596 _________OP___ -1 17.90 65.60 TC 34 17.63 65.84 4 5 321
1898 NI AS 03:00:00 NR 17.90 65.60 596 __________O___ -1 TC 17.90 65.60 2 5 320